createdAt,value
2023-02-24T00:02:04.259Z,100499.19
2023-02-24T00:04:38.576Z,100496.03
2023-02-24T00:07:06.185Z,100490.19
2023-02-24T00:09:33.408Z,100490.63
2023-02-24T00:12:02.953Z,100482.91
2023-02-24T00:14:31.427Z,100487.41
2023-02-24T00:16:58.646Z,100490.63
2023-02-24T00:19:27.074Z,100478.72
2023-02-24T00:21:56.346Z,100484.47
2023-02-24T00:24:23.150Z,100483.66
2023-02-24T00:26:54.492Z,100479.16
2023-02-24T00:29:24.266Z,100472.88
2023-02-24T00:31:59.248Z,100475.13
2023-02-24T00:34:30.959Z,100462.78
2023-02-24T00:36:58.258Z,100474.69
2023-02-24T00:39:33.402Z,100466.59
2023-02-24T00:42:05.909Z,100465.00
2023-02-24T00:44:34.136Z,100465.69
2023-02-24T00:47:02.309Z,100453.91
2023-02-24T00:49:29.286Z,100454.72
2023-02-24T00:51:56.858Z,100463.59
2023-02-24T00:54:27.476Z,100461.34
2023-02-24T00:56:54.799Z,100459.44
2023-02-24T00:59:23.792Z,100468.63
2023-02-24T01:01:50.979Z,100460.09
2023-02-24T01:04:19.061Z,100459.59
2023-02-24T01:06:48.961Z,100461.19
2023-02-24T01:09:19.119Z,100462.19
2023-02-24T01:12:22.683Z,100458.56
2023-02-24T01:14:51.488Z,100458.44
2023-02-24T01:17:18.824Z,100452.91
2023-02-24T01:19:45.994Z,100453.19
2023-02-24T01:22:15.037Z,100463.47
2023-02-24T01:24:43.281Z,100454.38
2023-02-24T01:27:11.598Z,100462.50
2023-02-24T01:29:39.906Z,100452.34
2023-02-24T01:32:14.071Z,100456.41
2023-02-24T01:34:42.627Z,100460.03
2023-02-24T01:37:09.937Z,100450.66
2023-02-24T01:39:36.526Z,100455.09
2023-02-24T01:42:04.857Z,100455.44
2023-02-24T01:44:33.217Z,100444.34
2023-02-24T01:47:03.926Z,100445.97
2023-02-24T01:49:37.661Z,100444.81
2023-02-24T01:52:12.732Z,100440.94
2023-02-24T01:54:47.326Z,100430.81
2023-02-24T01:57:17.209Z,100436.59
2023-02-24T01:59:48.536Z,100439.88
2023-02-24T02:02:15.672Z,100434.34
2023-02-24T02:04:48.119Z,100432.59
2023-02-24T02:07:17.719Z,100425.22
2023-02-24T02:09:46.940Z,100428.59
2023-02-24T02:12:13.614Z,100431.84
2023-02-24T02:14:43.401Z,100430.47
2023-02-24T02:17:09.756Z,100429.03
2023-02-24T02:20:01.244Z,100428.78
2023-02-24T02:22:46.069Z,100426.09
2023-02-24T02:25:40.943Z,100417.47
2023-02-24T02:28:32.172Z,100416.81
2023-02-24T02:31:12.836Z,100412.25
2023-02-24T02:34:02.835Z,100411.06
2023-02-24T02:37:08.513Z,100409.50
2023-02-24T02:39:39.906Z,100410.44
2023-02-24T02:42:35.953Z,100408.59
2023-02-24T02:45:18.226Z,100410.19
2023-02-24T02:47:54.886Z,100412.66
2023-02-24T02:50:28.595Z,100418.16
2023-02-24T02:53:00.988Z,100410.19
2023-02-24T02:55:36.248Z,100407.31
2023-02-24T02:58:04.854Z,100414.09
2023-02-24T03:00:37.237Z,100412.97
2023-02-24T03:03:12.632Z,100406.66
2023-02-24T03:05:46.974Z,100404.09
2023-02-24T03:08:18.211Z,100407.28
2023-02-24T03:10:45.393Z,100403.34
2023-02-24T03:13:13.364Z,100403.50
2023-02-24T03:15:42.500Z,100396.13
2023-02-24T03:18:14.974Z,100398.63
2023-02-24T03:20:46.837Z,100398.78
2023-02-24T03:23:21.830Z,100400.19
2023-02-24T03:25:59.011Z,100388.03
2023-02-24T03:28:35.558Z,100390.22
2023-02-24T03:31:10.976Z,100382.53
2023-02-24T03:33:46.745Z,100385.38
2023-02-24T03:36:15.113Z,100384.56
2023-02-24T03:38:42.901Z,100378.09
2023-02-24T03:41:12.076Z,100374.44
2023-02-24T03:43:44.905Z,100366.53
2023-02-24T03:46:11.846Z,100370.00
2023-02-24T03:48:44.474Z,100364.63
2023-02-24T03:51:23.309Z,100364.31
2023-02-24T03:54:02.729Z,100354.00
2023-02-24T03:56:47.247Z,100351.97
2023-02-24T03:59:57.398Z,100356.94
2023-02-24T04:02:28.734Z,100355.47
2023-02-24T04:05:13.737Z,100351.56
2023-02-24T04:08:01.276Z,100336.97
2023-02-24T04:10:33.647Z,100344.91
2023-02-24T04:13:25.061Z,100342.41
2023-02-24T04:15:58.944Z,100341.59
2023-02-24T04:18:29.242Z,100343.81
2023-02-24T04:20:59.774Z,100336.22
2023-02-24T04:23:30.199Z,100328.63
2023-02-24T04:25:57.021Z,100326.41
2023-02-24T04:28:25.797Z,100330.53
2023-02-24T04:30:57.307Z,100319.94
2023-02-24T04:33:24.208Z,100322.31
2023-02-24T04:35:53.341Z,100313.97
2023-02-24T04:38:20.862Z,100320.25
2023-02-24T04:40:49.837Z,100305.28
2023-02-24T04:43:17.146Z,100309.22
2023-02-24T04:45:44.295Z,100312.38
2023-02-24T04:48:14.288Z,100311.06
2023-02-24T04:50:43.438Z,100310.44
2023-02-24T04:53:15.363Z,100305.19
2023-02-24T04:55:50.768Z,100296.38
2023-02-24T04:58:22.170Z,100300.81
2023-02-24T05:00:52.819Z,100286.91
2023-02-24T05:03:21.247Z,100287.75
2023-02-24T05:05:52.552Z,100287.88
2023-02-24T05:08:19.852Z,100284.22
2023-02-24T05:10:47.257Z,100278.25
2023-02-24T05:13:15.905Z,100282.19
2023-02-24T05:15:44.659Z,100270.78
2023-02-24T05:18:14.747Z,100268.09
2023-02-24T05:21:02.162Z,100273.63
2023-02-24T05:23:34.234Z,100274.41
2023-02-24T05:26:02.323Z,100266.34
2023-02-24T05:28:32.995Z,100263.66
2023-02-24T05:31:11.095Z,100266.66
2023-02-24T05:33:38.647Z,100255.91
2023-02-24T05:36:08.501Z,100256.72
2023-02-24T05:38:38.064Z,100256.75
2023-02-24T05:41:15.084Z,100248.84
2023-02-24T05:43:41.798Z,100249.50
2023-02-24T05:46:08.307Z,100244.13
2023-02-24T05:48:37.691Z,100246.66
2023-02-24T05:51:08.004Z,100237.84
2023-02-24T05:53:35.316Z,100231.78
2023-02-24T05:56:02.124Z,100229.91
2023-02-24T05:58:32.495Z,100241.91
2023-02-24T06:01:05.948Z,100229.25
2023-02-24T06:03:35.731Z,100227.34
2023-02-24T06:06:09.122Z,100224.22
2023-02-24T06:08:42.455Z,100221.72
2023-02-24T06:11:12.819Z,100223.16
2023-02-24T06:13:39.326Z,100215.53
2023-02-24T06:16:06.995Z,100215.22
2023-02-24T06:18:34.041Z,100214.78
2023-02-24T06:21:03.752Z,100211.44
2023-02-24T06:23:30.223Z,100206.88
2023-02-24T06:26:01.890Z,100204.03
2023-02-24T06:28:28.548Z,100204.50
2023-02-24T06:30:56.186Z,100209.09
2023-02-24T06:33:26.296Z,100208.44
2023-02-24T06:35:53.399Z,100201.34
2023-02-24T06:38:19.940Z,100194.84
2023-02-24T06:40:47.516Z,100196.25
2023-02-24T06:43:14.023Z,100189.44
2023-02-24T06:45:40.926Z,100188.94
2023-02-24T06:48:09.086Z,100195.78
2023-02-24T06:50:35.697Z,100179.31
2023-02-24T06:53:02.715Z,100180.69
2023-02-24T06:55:29.343Z,100180.38
2023-02-24T06:57:58.472Z,100177.81
2023-02-24T07:00:37.046Z,100173.25
2023-02-24T07:03:14.982Z,100173.69
2023-02-24T07:06:11.197Z,100177.50
2023-02-24T07:08:38.348Z,100171.00
2023-02-24T07:11:06.438Z,100162.75
2023-02-24T07:13:34.170Z,100163.69
2023-02-24T07:16:06.825Z,100155.50
2023-02-24T07:18:35.996Z,100160.88
2023-02-24T07:21:11.427Z,100149.00
2023-02-24T07:23:41.721Z,100149.13
2023-02-24T07:26:14.021Z,100151.47
2023-02-24T07:28:42.051Z,100148.81
2023-02-24T07:31:13.986Z,100147.75
2023-02-24T07:33:45.526Z,100143.63
2023-02-24T07:36:15.089Z,100138.81
2023-02-24T07:38:42.768Z,100130.31
2023-02-24T07:41:10.829Z,100131.44
2023-02-24T07:43:38.329Z,100127.63
2023-02-24T07:46:09.575Z,100129.19
2023-02-24T07:48:39.521Z,100119.13
2023-02-24T07:51:16.979Z,100113.06
2023-02-24T07:53:43.896Z,100105.22
2023-02-24T07:56:14.442Z,100094.94
2023-02-24T07:58:42.403Z,100100.56
2023-02-24T08:01:17.742Z,100090.97
2023-02-24T08:03:44.779Z,100088.59
2023-02-24T08:06:26.598Z,100069.91
2023-02-24T08:08:58.863Z,100071.50
2023-02-24T08:11:35.518Z,100060.75
2023-02-24T08:14:13.889Z,100056.25
2023-02-24T08:16:45.430Z,100058.72
2023-02-24T08:19:14.912Z,100056.63
2023-02-24T08:21:47.272Z,100049.31
2023-02-24T08:24:18.361Z,100043.50
2023-02-24T08:26:45.533Z,100054.03
2023-02-24T08:29:12.934Z,100037.66
2023-02-24T08:31:39.642Z,100030.72
2023-02-24T08:34:06.239Z,100031.72
2023-02-24T08:36:32.768Z,100022.91
2023-02-24T08:38:59.834Z,100019.00
2023-02-24T08:41:44.907Z,100019.91
2023-02-24T08:44:12.905Z,100013.16
2023-02-24T08:46:40.345Z,100018.44
2023-02-24T08:49:10.875Z,100006.22
2023-02-24T08:51:43.753Z,100008.13
2023-02-24T08:54:27.139Z,99998.78
2023-02-24T08:57:08.235Z,99998.66
2023-02-24T08:59:41.035Z,99996.22
2023-02-24T09:02:18.775Z,99987.47
2023-02-24T09:04:46.939Z,99978.03
2023-02-24T09:07:25.212Z,99973.97
2023-02-24T09:09:56.349Z,99979.56
2023-02-24T09:12:25.223Z,99973.31
2023-02-24T09:14:57.737Z,99963.13
2023-02-24T09:17:46.651Z,99968.59
2023-02-24T09:20:28.156Z,99961.41
2023-02-24T09:23:07.353Z,99957.06
2023-02-24T09:25:49.605Z,99954.91
2023-02-24T09:28:18.412Z,99953.13
2023-02-24T09:30:51.424Z,99952.56
2023-02-24T09:33:20.844Z,99940.38
2023-02-24T09:36:03.363Z,99936.78
2023-02-24T09:38:49.140Z,99933.84
2023-02-24T09:41:34.064Z,99931.97
2023-02-24T09:44:07.708Z,99927.91
2023-02-24T09:47:08.951Z,99921.38
2023-02-24T09:50:00.930Z,99913.03
2023-02-24T09:52:42.187Z,99921.09
2023-02-24T09:55:25.336Z,99906.84
2023-02-24T09:58:18.708Z,99909.88
2023-02-24T10:01:00.410Z,99909.34
2023-02-24T10:03:48.065Z,99902.03
2023-02-24T10:06:24.248Z,99900.28
2023-02-24T10:08:55.166Z,99897.25
2023-02-24T10:11:32.885Z,99879.50
2023-02-24T10:14:05.308Z,99879.06
2023-02-24T10:16:44.434Z,99874.94
2023-02-24T10:19:16.790Z,99878.50
2023-02-24T10:22:27.731Z,99869.41
2023-02-24T10:25:21.305Z,99860.19
2023-02-24T10:28:12.332Z,99862.50
2023-02-24T10:31:10.426Z,99857.75
2023-02-24T10:33:45.161Z,99849.34
2023-02-24T10:36:17.307Z,99844.38
2023-02-24T10:38:50.765Z,99840.03
2023-02-24T10:41:17.550Z,99843.50
2023-02-24T10:43:56.211Z,99831.69
2023-02-24T10:46:41.110Z,99826.38
2023-02-24T10:49:10.046Z,99824.47
2023-02-24T10:51:39.140Z,99834.72
2023-02-24T10:54:22.748Z,99815.53
2023-02-24T10:57:00.616Z,99805.34
2023-02-24T10:59:58.480Z,99813.28
2023-02-24T11:02:30.187Z,99818.59
2023-02-24T11:04:59.677Z,99813.00
2023-02-24T11:07:33.672Z,99817.88
2023-02-24T11:10:26.098Z,99806.94
2023-02-24T11:13:15.077Z,99813.75
2023-02-24T11:16:19.105Z,99795.81
2023-02-24T11:18:52.680Z,99797.00
2023-02-24T11:21:19.763Z,99791.50
2023-02-24T11:23:49.616Z,99785.34
2023-02-24T11:26:35.343Z,99785.88
2023-02-24T11:29:42.364Z,99780.78
2023-02-24T11:32:30.256Z,99771.63
2023-02-24T11:35:12.656Z,99768.16
2023-02-24T11:37:43.675Z,99762.38
2023-02-24T11:40:10.190Z,99752.41
2023-02-24T11:42:43.701Z,99752.97
2023-02-24T11:45:25.516Z,99745.56
2023-02-24T11:48:19.650Z,99740.09
2023-02-24T11:50:54.096Z,99729.81
2023-02-24T11:53:37.153Z,99727.34
2023-02-24T11:56:27.165Z,99718.59
2023-02-24T11:59:12.463Z,99711.56
2023-02-24T12:01:50.799Z,99715.34
2023-02-24T12:04:24.389Z,99703.63
2023-02-24T12:07:09.763Z,99699.56
2023-02-24T12:09:53.721Z,99682.56
2023-02-24T12:12:42.556Z,99681.94
2023-02-24T12:15:34.052Z,99673.28
2023-02-24T12:18:31.399Z,99667.59
2023-02-24T12:21:01.059Z,99664.81
2023-02-24T12:23:30.469Z,99660.91
2023-02-24T12:26:19.930Z,99658.75
2023-02-24T12:29:09.403Z,99656.59
2023-02-24T12:31:53.602Z,99650.59
2023-02-24T12:34:53.854Z,99655.25
2023-02-24T12:37:39.496Z,99649.63
2023-02-24T12:40:32.522Z,99631.91
2023-02-24T12:43:29.819Z,99628.75
2023-02-24T12:46:14.033Z,99631.63
2023-02-24T12:49:17.863Z,99621.78
2023-02-24T12:52:20.777Z,99621.69
2023-02-24T12:54:55.214Z,99600.03
2023-02-24T12:57:28.553Z,99599.13
2023-02-24T12:59:58.005Z,99596.66
2023-02-24T13:02:53.010Z,99593.13
2023-02-24T13:05:33.531Z,99585.25
2023-02-24T13:08:11.406Z,99578.34
2023-02-24T13:10:45.944Z,99573.09
2023-02-24T13:13:34.611Z,99563.59
2023-02-24T13:16:01.119Z,99581.50
2023-02-24T13:18:31.120Z,99571.50
2023-02-24T13:21:22.422Z,99558.78
2023-02-24T13:24:00.887Z,99554.31
2023-02-24T13:26:30.498Z,99542.03
2023-02-24T13:29:02.654Z,99525.34
2023-02-24T13:31:41.565Z,99532.66
2023-02-24T13:34:44.341Z,99528.66
2023-02-24T13:37:11.503Z,99524.84
2023-02-24T13:39:41.425Z,99525.50
2023-02-24T13:42:20.073Z,99520.72
2023-02-24T13:45:03.029Z,99515.81
2023-02-24T13:48:29.409Z,99511.13
2023-02-24T13:51:02.226Z,99499.50
2023-02-24T13:54:06.102Z,99511.69
2023-02-24T13:56:48.807Z,99499.53
2023-02-24T13:59:42.990Z,99493.91
2023-02-24T14:02:15.708Z,99494.75
2023-02-24T14:04:52.753Z,99489.19
2023-02-24T14:07:22.760Z,99490.38
2023-02-24T14:09:53.529Z,99483.13
2023-02-24T14:12:23.950Z,99484.16
2023-02-24T14:14:51.111Z,99468.88
2023-02-24T14:17:28.855Z,99471.22
2023-02-24T14:20:07.407Z,99469.22
2023-02-24T14:22:34.720Z,99466.53
2023-02-24T14:25:02.648Z,99456.47
2023-02-24T14:27:29.245Z,99456.03
2023-02-24T14:29:55.950Z,99457.38
2023-02-24T14:32:24.699Z,99449.66
2023-02-24T14:34:52.626Z,99442.44
2023-02-24T14:37:24.658Z,99442.75
2023-02-24T14:39:53.862Z,99447.78
2023-02-24T14:42:21.038Z,99436.84
2023-02-24T14:44:52.953Z,99427.38
2023-02-24T14:47:21.832Z,99422.56
2023-02-24T14:49:53.624Z,99420.66
2023-02-24T14:52:37.421Z,99418.53
2023-02-24T14:55:16.606Z,99430.38
2023-02-24T14:57:49.965Z,99416.31
2023-02-24T15:00:24.033Z,99413.28
2023-02-24T15:02:58.573Z,99406.03
2023-02-24T15:05:25.094Z,99409.16
2023-02-24T15:07:52.037Z,99399.25
2023-02-24T15:10:24.542Z,99400.38
2023-02-24T15:12:58.249Z,99395.88
2023-02-24T15:15:28.988Z,99399.34
2023-02-24T15:17:58.559Z,99389.53
2023-02-24T15:20:25.349Z,99378.69
2023-02-24T15:22:51.989Z,99384.84
2023-02-24T15:25:33.723Z,99367.22
2023-02-24T15:28:07.696Z,99361.53
2023-02-24T15:30:36.362Z,99354.28
2023-02-24T15:33:05.447Z,99358.94
2023-02-24T15:35:33.600Z,99356.16
2023-02-24T15:38:01.010Z,99347.59
2023-02-24T15:40:28.881Z,99348.47
2023-02-24T15:43:00.247Z,99351.72
2023-02-24T15:45:35.513Z,99333.31
2023-02-24T15:48:20.086Z,99333.09
2023-02-24T15:50:46.914Z,99329.84
2023-02-24T15:53:13.485Z,99326.81
2023-02-24T15:55:43.722Z,99323.72
2023-02-24T15:58:18.709Z,99312.34
2023-02-24T16:00:45.417Z,99314.22
2023-02-24T16:03:12.601Z,99309.31
2023-02-24T16:05:39.145Z,99310.88
2023-02-24T16:08:05.772Z,99302.63
2023-02-24T16:10:32.366Z,99293.34
2023-02-24T16:13:00.478Z,99299.59
2023-02-24T16:15:29.398Z,99285.53
2023-02-24T16:17:56.468Z,99288.19
2023-02-24T16:20:27.579Z,99287.75
2023-02-24T16:22:56.189Z,99279.56
2023-02-24T16:25:23.188Z,99278.91
2023-02-24T16:27:49.980Z,99282.81
2023-02-24T16:30:22.476Z,99280.00
2023-02-24T16:32:49.759Z,99281.44
2023-02-24T16:35:16.460Z,99268.44
2023-02-24T16:37:46.080Z,99266.03
2023-02-24T16:40:23.235Z,99263.25
2023-02-24T16:42:51.620Z,99264.56
2023-02-24T16:45:19.519Z,99261.53
2023-02-24T16:47:48.671Z,99255.75
2023-02-24T16:50:24.269Z,99249.59
2023-02-24T16:52:50.802Z,99258.41
2023-02-24T16:55:18.246Z,99244.59
2023-02-24T16:57:44.718Z,99252.16
2023-02-24T17:00:13.415Z,99247.50
2023-02-24T17:02:42.538Z,99243.56
2023-02-24T17:05:16.139Z,99245.81
2023-02-24T17:07:42.735Z,99237.53
2023-02-24T17:10:09.613Z,99227.75
2023-02-24T17:12:36.176Z,99235.38
2023-02-24T17:15:02.692Z,99243.88
2023-02-24T17:17:29.242Z,99234.09
2023-02-24T17:19:55.767Z,99235.75
2023-02-24T17:22:22.660Z,99234.31
2023-02-24T17:24:49.163Z,99231.19
2023-02-24T17:27:15.684Z,99227.75
2023-02-24T17:29:42.229Z,99227.16
2023-02-24T17:32:09.178Z,99225.78
2023-02-24T17:34:35.962Z,99223.28
2023-02-24T17:37:02.946Z,99224.16
2023-02-24T17:39:29.487Z,99225.03
2023-02-24T17:41:55.957Z,99218.22
2023-02-24T17:44:22.621Z,99219.75
2023-02-24T17:46:49.300Z,99213.59
2023-02-24T17:49:15.851Z,99203.13
2023-02-24T17:51:42.316Z,99214.31
2023-02-24T17:54:08.851Z,99198.75
2023-02-24T17:56:35.333Z,99202.38
2023-02-24T17:59:01.858Z,99194.75
2023-02-24T18:01:28.682Z,99188.38
2023-02-24T18:03:57.401Z,99186.47
2023-02-24T18:06:24.711Z,99180.41
2023-02-24T18:08:51.402Z,99180.22
2023-02-24T18:11:18.704Z,99169.69
2023-02-24T18:13:45.420Z,99171.66
2023-02-24T18:16:13.740Z,99167.09
2023-02-24T18:18:40.655Z,99166.56
2023-02-24T18:21:08.552Z,99170.03
2023-02-24T18:23:36.526Z,99166.31
2023-02-24T18:26:04.156Z,99161.97
2023-02-24T18:28:31.590Z,99163.03
2023-02-24T18:30:58.708Z,99163.44
2023-02-24T18:33:25.392Z,99150.72
2023-02-24T18:36:01.458Z,99141.91
2023-02-24T18:38:28.941Z,99142.16
2023-02-24T18:41:04.701Z,99138.09
2023-02-24T18:43:32.053Z,99144.19
2023-02-24T18:46:03.999Z,99136.13
2023-02-24T18:48:32.219Z,99136.31
2023-02-24T18:50:58.868Z,99136.63
2023-02-24T18:53:28.230Z,99126.88
2023-02-24T18:56:02.397Z,99125.03
2023-02-24T18:58:29.741Z,99124.44
2023-02-24T19:00:56.248Z,99120.03
2023-02-24T19:03:22.962Z,99125.22
2023-02-24T19:05:50.141Z,99117.69
2023-02-24T19:08:16.778Z,99117.50
2023-02-24T19:10:43.689Z,99113.41
2023-02-24T19:13:11.305Z,99109.19
2023-02-24T19:15:38.644Z,99105.97
2023-02-24T19:18:05.566Z,99107.19
2023-02-24T19:20:32.285Z,99104.16
2023-02-24T19:22:58.821Z,99099.75
2023-02-24T19:25:25.399Z,99093.50
2023-02-24T19:27:53.388Z,99096.16
2023-02-24T19:30:19.934Z,99085.50
2023-02-24T19:32:46.647Z,99086.19
2023-02-24T19:35:13.696Z,99083.78
2023-02-24T19:37:40.205Z,99089.31
2023-02-24T19:40:07.049Z,99071.94
2023-02-24T19:42:33.553Z,99079.69
2023-02-24T19:45:00.121Z,99068.69
2023-02-24T19:47:26.629Z,99068.69
2023-02-24T19:49:53.292Z,99070.97
2023-02-24T19:52:19.768Z,99062.63
2023-02-24T19:54:46.338Z,99061.34
2023-02-24T19:57:12.928Z,99068.69
2023-02-24T19:59:39.661Z,99071.44
2023-02-24T20:02:06.200Z,99063.84
2023-02-24T20:04:32.821Z,99055.56
2023-02-24T20:06:59.348Z,99052.88
2023-02-24T20:09:27.019Z,99057.66
2023-02-24T20:11:54.745Z,99056.41
2023-02-24T20:14:21.334Z,99051.91
2023-02-24T20:16:47.896Z,99047.50
2023-02-24T20:19:15.466Z,99052.44
2023-02-24T20:21:42.243Z,99050.19
2023-02-24T20:24:13.408Z,99044.13
2023-02-24T20:26:42.109Z,99044.47
2023-02-24T20:29:09.505Z,99043.25
2023-02-24T20:31:36.179Z,99037.91
2023-02-24T20:34:04.473Z,99037.06
2023-02-24T20:36:30.976Z,99037.06
2023-02-24T20:38:58.758Z,99031.34
2023-02-24T20:41:26.538Z,99028.31
2023-02-24T20:43:53.284Z,99029.44
2023-02-24T20:46:24.261Z,99022.66
2023-02-24T20:48:52.216Z,99026.13
2023-02-24T20:51:18.860Z,99027.34
2023-02-24T20:53:56.626Z,99024.81
2023-02-24T20:56:26.046Z,99016.66
2023-02-24T20:58:57.211Z,99020.56
2023-02-24T21:01:23.781Z,99025.25
2023-02-24T21:03:50.663Z,99016.00
2023-02-24T21:06:17.996Z,99019.53
2023-02-24T21:08:44.831Z,99015.38
2023-02-24T21:11:12.422Z,99005.44
2023-02-24T21:13:43.348Z,98994.69
2023-02-24T21:16:10.959Z,98998.19
2023-02-24T21:18:40.036Z,98992.28
2023-02-24T21:21:07.159Z,98993.06
2023-02-24T21:23:34.031Z,98987.75
2023-02-24T21:26:00.524Z,98983.28
2023-02-24T21:28:27.010Z,98979.59
2023-02-24T21:30:53.613Z,98980.25
2023-02-24T21:33:20.121Z,98977.50
2023-02-24T21:35:57.113Z,98969.81
2023-02-24T21:38:23.602Z,98973.63
2023-02-24T21:40:50.159Z,98970.25
2023-02-24T21:43:17.776Z,98965.69
2023-02-24T21:45:45.468Z,98964.38
2023-02-24T21:48:11.948Z,98957.53
2023-02-24T21:50:38.437Z,98958.72
2023-02-24T21:53:06.096Z,98962.59
2023-02-24T21:55:34.028Z,98952.72
2023-02-24T21:58:00.716Z,98948.97
2023-02-24T22:00:28.538Z,98940.72
2023-02-24T22:03:06.428Z,98934.28
2023-02-24T22:05:34.030Z,98928.97
2023-02-24T22:08:03.786Z,98924.88
2023-02-24T22:10:31.457Z,98928.69
2023-02-24T22:12:58.105Z,98924.47
2023-02-24T22:15:24.588Z,98921.03
2023-02-24T22:17:51.100Z,98924.56
2023-02-24T22:20:17.813Z,98926.41
2023-02-24T22:22:44.463Z,98924.16
2023-02-24T22:25:11.291Z,98921.81
2023-02-24T22:27:37.936Z,98919.91
2023-02-24T22:30:05.615Z,98918.53
2023-02-24T22:32:32.497Z,98918.94
2023-02-24T22:34:59.073Z,98909.34
2023-02-24T22:37:25.605Z,98915.47
2023-02-24T22:39:52.186Z,98920.41
2023-02-24T22:42:18.740Z,98920.84
2023-02-24T22:44:45.311Z,98915.91
2023-02-24T22:47:11.837Z,98909.41
2023-02-24T22:49:38.428Z,98906.72
2023-02-24T22:52:04.953Z,98903.31
2023-02-24T22:54:31.601Z,98900.06
2023-02-24T22:56:58.188Z,98906.63
2023-02-24T22:59:24.742Z,98904.69
2023-02-24T23:01:51.247Z,98906.91
2023-02-24T23:04:18.207Z,98910.78
2023-02-24T23:06:44.919Z,98897.38
2023-02-24T23:09:11.869Z,98898.97
2023-02-24T23:11:41.351Z,98906.91
2023-02-24T23:14:10.083Z,98907.06
2023-02-24T23:16:37.320Z,98903.69
2023-02-24T23:19:06.853Z,98904.34
2023-02-24T23:21:37.890Z,98897.13
2023-02-24T23:24:05.219Z,98897.13
2023-02-24T23:26:43.007Z,98889.47
2023-02-24T23:29:10.990Z,98885.22
2023-02-24T23:31:37.979Z,98875.72
2023-02-24T23:34:06.972Z,98893.41
2023-02-24T23:36:35.888Z,98877.28
2023-02-24T23:39:03.281Z,98892.19
2023-02-24T23:41:29.900Z,98884.97
2023-02-24T23:43:56.407Z,98896.03
2023-02-24T23:46:23.292Z,98888.63
2023-02-24T23:48:54.242Z,98888.22
2023-02-24T23:51:20.962Z,98883.25
2023-02-24T23:53:48.493Z,98878.50
2023-02-24T23:56:19.720Z,98879.81
2023-02-24T23:58:50.519Z,98873.25
